Time,TemperatureF,DewpointF,PressureIn,WindDirection,WindDirectionDegrees,WindSpeedMPH,WindSpeedGustMPH,Humidity,HourlyPrecipIn,Conditions,Clouds,dailyrainin,SoftwareType,DateUTC
2013-03-15 00:09:00,27.7,18.0,30.08,NW,309,1.0,-999.0,66,-99.99,,,0.00,weatherlink.com 1.10,2013-03-15 04:09:00,
2013-03-15 00:24:00,27.3,18.0,30.08,NW,314,0.0,-999.0,68,-99.99,,,0.00,weatherlink.com 1.10,2013-03-15 04:24:00,
2013-03-15 00:39:00,26.8,18.0,30.08,NW,314,0.0,-999.0,69,-99.99,,,0.00,weatherlink.com 1.10,2013-03-15 04:39:00,
2013-03-15 00:54:00,26.4,18.0,30.08,NW,314,0.0,-999.0,71,-99.99,,,0.00,weatherlink.com 1.10,2013-03-15 04:54:00,
2013-03-15 01:09:00,26.0,19.0,30.08,NW,314,0.0,-999.0,74,-99.99,,,0.00,weatherlink.com 1.10,2013-03-15 05:09:00,
2013-03-15 01:24:00,25.5,19.0,30.07,NW,314,0.0,-999.0,76,-99.99,,,0.00,weatherlink.com 1.10,2013-03-15 05:24:00,
2013-03-15 01:39:00,25.3,19.0,30.07,NW,314,0.0,-999.0,78,-99.99,,,0.00,weatherlink.com 1.10,2013-03-15 05:39:00,
2013-03-15 01:54:00,25.3,20.0,30.06,NW,314,0.0,-999.0,79,-99.99,,,0.00,weatherlink.com 1.10,2013-03-15 05:54:00,
2013-03-15 02:09:00,25.7,20.0,30.05,NW,319,0.0,-999.0,79,-99.99,,,0.00,weatherlink.com 1.10,2013-03-15 06:09:00,
2013-03-15 02:24:00,26.3,21.0,30.05,South,186,0.0,-999.0,81,-99.99,,,0.00,weatherlink.com 1.10,2013-03-15 06:24:00,
2013-03-15 02:39:00,26.2,21.0,30.04,South,175,0.0,-999.0,82,-99.99,,,0.00,weatherlink.com 1.10,2013-03-15 06:39:00,
2013-03-15 02:54:00,26.3,22.0,30.03,SW,221,0.0,-999.0,84,-99.99,,,0.00,weatherlink.com 1.10,2013-03-15 06:54:00,
2013-03-15 03:09:00,26.0,22.0,30.02,SW,221,0.0,-999.0,85,-99.99,,,0.00,weatherlink.com 1.10,2013-03-15 07:09:00,
2013-03-15 03:24:00,25.8,22.0,30.01,SW,219,0.0,-999.0,86,-99.99,,,0.00,weatherlink.com 1.10,2013-03-15 07:24:00,
2013-03-15 03:39:00,25.7,22.0,30.00,SE,132,0.0,-999.0,86,-99.99,,,0.00,weatherlink.com 1.10,2013-03-15 07:39:00,
2013-03-15 03:54:00,25.5,22.0,29.99,SE,132,0.0,-999.0,87,-99.99,,,0.00,weatherlink.com 1.10,2013-03-15 07:54:00,
2013-03-15 04:09:00,25.6,22.0,29.98,SSE,159,0.0,-999.0,86,-99.99,,,0.00,weatherlink.com 1.10,2013-03-15 08:09:00,
2013-03-15 04:24:00,25.8,22.0,29.97,SSE,159,0.0,-999.0,86,-99.99,,,0.00,weatherlink.com 1.10,2013-03-15 08:24:00,
2013-03-15 04:39:00,26.3,22.0,29.96,South,170,0.0,-999.0,85,-99.99,,,0.00,weatherlink.com 1.10,2013-03-15 08:39:00,
2013-03-15 04:54:00,26.9,22.0,29.95,SE,128,0.0,-999.0,81,-99.99,,,0.00,weatherlink.com 1.10,2013-03-15 08:54:00,
2013-03-15 05:09:00,27.8,22.0,29.95,SW,227,1.0,-999.0,79,-99.99,,,0.00,weatherlink.com 1.10,2013-03-15 09:09:00,
2013-03-15 05:24:00,28.6,22.0,29.94,West,263,1.0,-999.0,76,-99.99,,,0.00,weatherlink.com 1.10,2013-03-15 09:24:00,
2013-03-15 05:39:00,29.4,22.0,29.93,WSW,249,2.0,-999.0,75,-99.99,,,0.00,weatherlink.com 1.10,2013-03-15 09:39:00,
2013-03-15 05:54:00,29.8,23.0,29.93,SW,222,2.0,-999.0,75,-99.99,,,0.00,weatherlink.com 1.10,2013-03-15 09:54:00,
2013-03-15 06:09:00,30.0,23.0,29.92,West,277,0.0,-999.0,76,-99.99,,,0.00,weatherlink.com 1.10,2013-03-15 10:09:00,
2013-03-15 06:24:00,30.2,24.0,29.91,SSW,213,4.0,-999.0,77,-99.99,,,0.00,weatherlink.com 1.10,2013-03-15 10:24:00,
2013-03-15 06:39:00,30.5,24.0,29.89,SE,130,0.0,-999.0,78,-99.99,,,0.00,weatherlink.com 1.10,2013-03-15 10:39:00,
2013-03-15 06:54:00,30.7,25.0,29.89,NNW,341,0.0,-999.0,79,-99.99,,,0.00,weatherlink.com 1.10,2013-03-15 10:54:00,
2013-03-15 07:09:00,31.3,26.0,29.89,NE,36,0.0,-999.0,79,-99.99,,,0.00,weatherlink.com 1.10,2013-03-15 11:09:00,
2013-03-15 07:24:00,31.7,26.0,29.88,NW,309,1.0,-999.0,80,-99.99,,,0.00,weatherlink.com 1.10,2013-03-15 11:24:00,
2013-03-15 07:39:00,31.5,28.0,29.87,North,351,3.0,-999.0,86,-99.99,,,0.00,weatherlink.com 1.10,2013-03-15 11:39:00,
2013-03-15 07:54:00,31.4,29.0,29.86,West,273,4.0,-999.0,89,-99.99,,,0.00,weatherlink.com 1.10,2013-03-15 11:54:00,
2013-03-15 08:09:00,31.7,29.0,29.86,SW,219,6.0,-999.0,89,-99.99,,,0.00,weatherlink.com 1.10,2013-03-15 12:09:00,
2013-03-15 08:24:00,31.7,29.0,29.86,NNW,331,3.0,-999.0,89,-99.99,,,0.00,weatherlink.com 1.10,2013-03-15 12:24:00,
2013-03-15 08:39:00,31.6,29.0,29.85,NW,304,5.0,-999.0,90,-99.99,,,0.00,weatherlink.com 1.10,2013-03-15 12:39:00,
2013-03-15 08:54:00,31.7,29.0,29.85,NW,308,9.0,-999.0,90,-99.99,,,0.00,weatherlink.com 1.10,2013-03-15 12:54:00,
2013-03-15 09:09:00,31.9,29.0,29.85,WNW,302,1.0,-999.0,90,-99.99,,,0.00,weatherlink.com 1.10,2013-03-15 13:09:00,
2013-03-15 09:24:00,31.9,30.0,29.85,NNW,336,1.0,-999.0,91,-99.99,,,0.00,weatherlink.com 1.10,2013-03-15 13:24:00,
2013-03-15 09:39:00,32.0,30.0,29.84,West,267,5.0,-999.0,92,-99.99,,,0.00,weatherlink.com 1.10,2013-03-15 13:39:00,
2013-03-15 09:54:00,31.9,30.0,29.84,SSW,205,0.0,-999.0,92,-99.99,,,0.00,weatherlink.com 1.10,2013-03-15 13:54:00,
2013-03-15 10:09:00,32.1,30.0,29.84,North,5,6.0,-999.0,92,-99.99,,,0.00,weatherlink.com 1.10,2013-03-15 14:09:00,
2013-03-15 10:24:00,32.3,30.0,29.84,NNW,339,3.0,-999.0,92,-99.99,,,0.00,weatherlink.com 1.10,2013-03-15 14:24:00,
2013-03-15 10:39:00,32.3,30.0,29.84,West,281,7.0,-999.0,92,-99.99,,,0.00,weatherlink.com 1.10,2013-03-15 14:39:00,
2013-03-15 10:54:00,32.5,30.0,29.84,NE,53,2.0,-999.0,91,-99.99,,,0.00,weatherlink.com 1.10,2013-03-15 14:54:00,
2013-03-15 11:09:00,32.6,30.0,29.83,West,259,3.0,-999.0,91,-99.99,,,0.00,weatherlink.com 1.10,2013-03-15 15:09:00,
2013-03-15 11:24:00,32.7,30.0,29.82,SSW,205,4.0,-999.0,91,-99.99,,,0.00,weatherlink.com 1.10,2013-03-15 15:24:00,
2013-03-15 11:39:00,32.9,30.0,29.82,WSW,257,5.0,-999.0,90,-99.99,,,0.00,weatherlink.com 1.10,2013-03-15 15:39:00,
2013-03-15 11:54:00,33.0,31.0,29.82,NNW,340,6.0,-999.0,91,-99.99,,,0.00,weatherlink.com 1.10,2013-03-15 15:54:00,
2013-03-15 12:09:00,33.0,31.0,29.82,North,355,4.0,-999.0,92,-99.99,,,0.00,weatherlink.com 1.10,2013-03-15 16:09:00,
2013-03-15 12:24:00,33.1,31.0,29.82,NW,306,3.0,-999.0,92,-99.99,,,0.00,weatherlink.com 1.10,2013-03-15 16:24:00,
2013-03-15 12:39:00,33.2,31.0,29.81,SSW,206,4.0,-999.0,91,-99.99,,,0.00,weatherlink.com 1.10,2013-03-15 16:39:00,
2013-03-15 12:54:00,33.3,31.0,29.81,SW,224,4.0,-999.0,90,-99.99,,,0.00,weatherlink.com 1.10,2013-03-15 16:54:00,
2013-03-15 13:09:00,33.3,31.0,29.81,NW,317,7.0,-999.0,91,-99.99,,,0.00,weatherlink.com 1.10,2013-03-15 17:09:00,
2013-03-15 13:24:00,33.4,31.0,29.81,SW,215,1.0,-999.0,90,-99.99,,,0.00,weatherlink.com 1.10,2013-03-15 17:24:00,
2013-03-15 13:39:00,33.3,31.0,29.81,West,281,6.0,-999.0,91,-99.99,,,0.00,weatherlink.com 1.10,2013-03-15 17:39:00,
2013-03-15 13:54:00,33.4,31.0,29.80,WNW,291,5.0,-999.0,90,-99.99,,,0.00,weatherlink.com 1.10,2013-03-15 17:54:00,
2013-03-15 14:09:00,33.4,31.0,29.80,NNW,338,7.0,-999.0,91,-99.99,,,0.00,weatherlink.com 1.10,2013-03-15 18:09:00,
2013-03-15 14:24:00,33.4,31.0,29.80,WNW,302,2.0,-999.0,90,-99.99,,,0.00,weatherlink.com 1.10,2013-03-15 18:24:00,
2013-03-15 14:39:00,33.5,31.0,29.80,North,355,2.0,-999.0,91,-99.99,,,0.00,weatherlink.com 1.10,2013-03-15 18:39:00,
2013-03-15 14:54:00,33.4,31.0,29.80,NW,306,10.0,-999.0,91,-99.99,,,0.00,weatherlink.com 1.10,2013-03-15 18:54:00,
2013-03-15 15:09:00,33.4,31.0,29.80,SSW,205,4.0,-999.0,91,-99.99,,,0.00,weatherlink.com 1.10,2013-03-15 19:09:00,
2013-03-15 15:39:00,33.9,32.0,29.80,NW,309,6.0,-999.0,91,-99.99,,,0.00,weatherlink.com 1.10,2013-03-15 19:39:00,
2013-03-15 15:54:00,33.9,32.0,29.80,NW,314,7.0,-999.0,92,-99.99,,,0.00,weatherlink.com 1.10,2013-03-15 19:54:00,
2013-03-15 16:09:00,34.2,32.0,29.80,East,101,5.0,-999.0,91,-99.99,,,0.00,weatherlink.com 1.10,2013-03-15 20:09:00,
2013-03-15 16:24:00,34.4,32.0,29.80,SW,221,0.0,-999.0,91,-99.99,,,0.00,weatherlink.com 1.10,2013-03-15 20:24:00,
2013-03-15 16:39:00,34.6,32.0,29.80,NW,308,4.0,-999.0,90,-99.99,,,0.00,weatherlink.com 1.10,2013-03-15 20:39:00,
2013-03-15 16:54:00,34.5,32.0,29.80,WNW,295,7.0,-999.0,90,-99.99,,,0.00,weatherlink.com 1.10,2013-03-15 20:54:00,
2013-03-15 17:09:00,34.5,32.0,29.81,West,267,3.0,-999.0,90,-99.99,,,0.00,weatherlink.com 1.10,2013-03-15 21:09:00,
2013-03-15 17:24:00,34.6,32.0,29.80,SW,228,3.0,-999.0,90,-99.99,,,0.00,weatherlink.com 1.10,2013-03-15 21:24:00,
2013-03-15 17:39:00,34.8,32.0,29.81,SW,227,0.0,-999.0,89,-99.99,,,0.00,weatherlink.com 1.10,2013-03-15 21:39:00,
2013-03-15 17:54:00,34.6,32.0,29.81,SW,226,4.0,-999.0,89,-99.99,,,0.00,weatherlink.com 1.10,2013-03-15 21:54:00,
2013-03-15 18:09:00,34.8,32.0,29.81,WNW,294,2.0,-999.0,89,-99.99,,,0.01,weatherlink.com 1.10,2013-03-15 22:09:00,
2013-03-15 18:24:00,34.6,32.0,29.82,NW,307,2.0,-999.0,89,-99.99,,,0.01,weatherlink.com 1.10,2013-03-15 22:24:00,
2013-03-15 18:39:00,34.6,32.0,29.82,NNW,333,2.0,-999.0,89,-99.99,,,0.01,weatherlink.com 1.10,2013-03-15 22:39:00,
2013-03-15 18:54:00,34.5,32.0,29.83,NNW,329,2.0,-999.0,89,-99.99,,,0.02,weatherlink.com 1.10,2013-03-15 22:54:00,
2013-03-15 19:09:00,34.2,31.0,29.83,NW,324,5.0,-999.0,89,-99.99,,,0.02,weatherlink.com 1.10,2013-03-15 23:09:00,
2013-03-15 19:24:00,33.9,31.0,29.84,WNW,286,3.0,-999.0,89,-99.99,,,0.02,weatherlink.com 1.10,2013-03-15 23:24:00,
2013-03-15 19:39:00,33.6,31.0,29.84,NW,306,6.0,-999.0,90,-99.99,,,0.02,weatherlink.com 1.10,2013-03-15 23:39:00,
2013-03-15 19:53:00,33.5,31.0,29.85,SW,226,2.0,-999.0,89,-99.99,,,0.02,weatherlink.com 1.10,2013-03-15 23:53:00,
2013-03-15 20:08:00,33.3,31.0,29.85,WNW,292,1.0,-999.0,90,-99.99,,,0.02,weatherlink.com 1.10,2013-03-16 00:08:00,
2013-03-15 20:23:00,33.2,30.0,29.86,WNW,292,3.0,-999.0,88,-99.99,,,0.02,weatherlink.com 1.10,2013-03-16 00:23:00,
2013-03-15 20:38:00,33.1,29.0,29.86,WNW,299,2.0,-999.0,85,-99.99,,,0.02,weatherlink.com 1.10,2013-03-16 00:38:00,
2013-03-15 20:53:00,33.2,28.0,29.86,WNW,300,0.0,-999.0,82,-99.99,,,0.02,weatherlink.com 1.10,2013-03-16 00:53:00,
2013-03-15 21:08:00,33.3,27.0,29.87,WNW,293,4.0,-999.0,76,-99.99,,,0.02,weatherlink.com 1.10,2013-03-16 01:08:00,
2013-03-15 21:23:00,33.3,26.0,29.88,WNW,299,2.0,-999.0,74,-99.99,,,0.02,weatherlink.com 1.10,2013-03-16 01:23:00,
2013-03-15 21:38:00,33.2,25.0,29.88,NW,310,4.0,-999.0,73,-99.99,,,0.02,weatherlink.com 1.10,2013-03-16 01:38:00,
2013-03-15 21:53:00,32.7,24.0,29.89,NW,314,3.0,-999.0,70,-99.99,,,0.02,weatherlink.com 1.10,2013-03-16 01:53:00,
2013-03-15 22:08:00,32.2,23.0,29.89,WNW,295,2.0,-999.0,70,-99.99,,,0.02,weatherlink.com 1.10,2013-03-16 02:08:00,
2013-03-15 22:38:00,31.4,23.0,29.90,WNW,298,0.0,-999.0,71,-99.99,,,0.02,weatherlink.com 1.10,2013-03-16 02:38:00,
2013-03-15 22:53:00,31.0,23.0,29.90,WNW,301,0.0,-999.0,72,-99.99,,,0.02,weatherlink.com 1.10,2013-03-16 02:53:00,
2013-03-15 23:08:00,30.6,23.0,29.91,WNW,298,1.0,-999.0,73,-99.99,,,0.02,weatherlink.com 1.10,2013-03-16 03:08:00,
2013-03-15 23:23:00,30.0,22.0,29.91,WNW,297,4.0,-999.0,73,-99.99,,,0.02,weatherlink.com 1.10,2013-03-16 03:23:00,
2013-03-15 23:38:00,29.8,22.0,29.91,NW,306,1.0,-999.0,72,-99.99,,,0.02,weatherlink.com 1.10,2013-03-16 03:38:00,
2013-03-15 23:53:00,29.6,21.0,29.91,WNW,298,0.0,-999.0,71,-99.99,,,0.02,weatherlink.com 1.10,2013-03-16 03:53:00,